createdAt,value
2019-05-26T00:02:11.099Z,10.94
2019-05-26T00:04:37.122Z,10.89
2019-05-26T00:07:03.660Z,10.85
2019-05-26T00:09:29.701Z,10.81
2019-05-26T00:11:56.111Z,10.80
2019-05-26T00:14:22.453Z,10.75
2019-05-26T00:16:48.625Z,10.73
2019-05-26T00:19:14.864Z,10.72
2019-05-26T00:21:41.501Z,10.71
2019-05-26T00:24:07.624Z,10.73
2019-05-26T00:26:33.787Z,10.74
2019-05-26T00:29:00.256Z,10.74
2019-05-26T00:31:26.274Z,10.73
2019-05-26T00:33:52.427Z,10.74
2019-05-26T00:36:18.913Z,10.73
2019-05-26T00:38:44.966Z,10.72
2019-05-26T00:41:11.128Z,10.72
2019-05-26T00:43:37.298Z,10.69
2019-05-26T00:46:03.609Z,10.68
2019-05-26T00:48:29.728Z,10.65
2019-05-26T00:50:56.347Z,10.60
2019-05-26T00:53:22.471Z,10.26
2019-05-26T00:55:48.527Z,10.51
2019-05-26T00:58:14.639Z,10.46
2019-05-26T01:00:42.111Z,10.40
2019-05-26T01:03:09.588Z,10.35
2019-05-26T01:05:36.234Z,10.28
2019-05-26T01:08:06.630Z,10.20
2019-05-26T01:10:32.338Z,10.15
2019-05-26T01:12:58.346Z,10.13
2019-05-26T01:15:24.531Z,10.09
2019-05-26T01:17:50.809Z,10.08
2019-05-26T01:20:17.442Z,10.10
2019-05-26T01:22:43.567Z,10.11
2019-05-26T01:25:09.867Z,10.16
2019-05-26T01:27:36.423Z,10.20
2019-05-26T01:30:04.796Z,10.22
2019-05-26T01:32:31.043Z,10.25
2019-05-26T01:34:57.532Z,10.25
2019-05-26T01:37:23.826Z,10.23
2019-05-26T01:39:49.887Z,10.18
2019-05-26T01:42:15.929Z,10.11
2019-05-26T01:44:41.902Z,10.05
2019-05-26T01:47:08.322Z,10.00
2019-05-26T01:49:34.353Z,9.93
2019-05-26T01:52:00.266Z,9.88
2019-05-26T01:54:26.764Z,9.81
2019-05-26T01:56:52.906Z,9.76
2019-05-26T01:59:20.538Z,9.71
2019-05-26T02:01:48.745Z,9.68
2019-05-26T02:04:16.713Z,9.63
2019-05-26T02:06:42.828Z,9.59
2019-05-26T02:09:09.374Z,9.58
2019-05-26T02:11:35.412Z,9.60
2019-05-26T02:14:01.443Z,9.28
2019-05-26T02:16:27.765Z,9.54
2019-05-26T02:18:53.913Z,9.55
2019-05-26T02:21:19.939Z,9.54
2019-05-26T02:23:45.988Z,9.54
2019-05-26T02:26:12.151Z,9.54
2019-05-26T02:28:38.148Z,9.56
2019-05-26T02:31:04.258Z,9.58
2019-05-26T02:33:30.279Z,9.60
2019-05-26T02:35:56.775Z,9.63
2019-05-26T02:38:26.199Z,9.69
2019-05-26T02:40:50.803Z,9.72
2019-05-26T02:43:17.300Z,9.75
2019-05-26T02:45:43.576Z,9.79
2019-05-26T02:48:09.715Z,8.88
2019-05-26T02:50:36.024Z,9.88
2019-05-26T02:53:02.171Z,9.91
2019-05-26T02:55:28.362Z,9.93
2019-05-26T02:57:54.935Z,9.94
2019-05-26T03:00:33.708Z,9.94
2019-05-26T03:02:59.717Z,9.92
2019-05-26T03:05:26.210Z,9.90
2019-05-26T03:07:52.834Z,8.50
2019-05-26T03:10:18.974Z,9.89
2019-05-26T03:12:45.824Z,9.88
2019-05-26T03:15:12.899Z,9.89
2019-05-26T03:17:40.037Z,9.89
2019-05-26T03:20:06.728Z,9.88
2019-05-26T03:22:32.945Z,9.89
2019-05-26T03:24:59.781Z,9.88
2019-05-26T03:27:26.121Z,9.86
2019-05-26T03:29:52.033Z,9.85
2019-05-26T03:32:18.234Z,9.85
2019-05-26T03:34:44.878Z,9.84
2019-05-26T03:37:10.943Z,9.81
2019-05-26T03:39:45.267Z,9.78
2019-05-26T03:42:05.501Z,9.77
2019-05-26T03:44:31.717Z,9.75
2019-05-26T03:46:57.756Z,9.75
2019-05-26T03:49:24.223Z,9.77
2019-05-26T03:51:50.157Z,9.78
2019-05-26T03:54:16.134Z,9.79
2019-05-26T03:56:42.530Z,9.80
2019-05-26T03:59:08.675Z,9.79
2019-05-26T04:01:34.836Z,9.77
2019-05-26T04:04:01.055Z,9.76
2019-05-26T04:06:27.257Z,9.76
2019-05-26T04:08:53.293Z,9.75
2019-05-26T04:11:19.504Z,9.74
2019-05-26T04:13:45.622Z,9.74
2019-05-26T04:16:11.916Z,9.75
2019-05-26T04:18:38.484Z,9.76
2019-05-26T04:21:04.475Z,9.76
2019-05-26T04:23:30.878Z,9.79
2019-05-26T04:25:57.563Z,8.34
2019-05-26T04:28:23.596Z,9.85
2019-05-26T04:30:49.726Z,9.87
2019-05-26T04:33:16.146Z,9.90
2019-05-26T04:35:42.253Z,9.95
2019-05-26T04:38:08.598Z,9.99
2019-05-26T04:40:35.163Z,10.06
2019-05-26T04:43:01.546Z,10.10
2019-05-26T04:45:27.510Z,10.16
2019-05-26T04:47:53.598Z,10.21
2019-05-26T04:50:19.993Z,10.26
2019-05-26T04:53:04.343Z,10.35
2019-05-26T04:55:14.608Z,10.41
2019-05-26T04:57:40.692Z,10.46
2019-05-26T05:00:07.545Z,10.52
2019-05-26T05:02:33.583Z,10.57
2019-05-26T05:04:59.582Z,10.63
2019-05-26T05:07:28.418Z,10.46
2019-05-26T05:09:53.837Z,10.74
2019-05-26T05:12:21.266Z,10.82
2019-05-26T05:14:47.476Z,10.87
2019-05-26T05:17:13.654Z,10.94
2019-05-26T05:19:39.698Z,11.00
2019-05-26T05:22:06.040Z,9.62
2019-05-26T05:24:32.325Z,11.13
2019-05-26T05:26:58.495Z,11.21
2019-05-26T05:29:24.510Z,11.27
2019-05-26T05:31:50.575Z,11.35
2019-05-26T05:34:16.811Z,11.44
2019-05-26T05:36:43.336Z,11.53
2019-05-26T05:39:09.497Z,11.64
2019-05-26T05:41:35.661Z,11.74
2019-05-26T05:44:02.390Z,11.85
2019-05-26T05:46:28.683Z,11.94
2019-05-26T05:48:54.839Z,12.03
2019-05-26T05:51:21.368Z,11.09
2019-05-26T05:53:47.405Z,12.18
2019-05-26T05:56:13.706Z,12.27
2019-05-26T05:58:40.011Z,12.38
2019-05-26T06:01:06.035Z,12.45
2019-05-26T06:03:32.844Z,12.55
2019-05-26T06:05:59.455Z,12.68
2019-05-26T06:08:25.563Z,12.79
2019-05-26T06:10:51.731Z,12.89
2019-05-26T06:13:18.225Z,13.06
2019-05-26T06:15:44.377Z,13.18
2019-05-26T06:18:10.633Z,13.31
2019-05-26T06:20:37.038Z,13.40
2019-05-26T06:23:03.309Z,13.48
2019-05-26T06:25:29.937Z,13.55
2019-05-26T06:27:56.445Z,13.64
2019-05-26T06:30:23.221Z,13.75
2019-05-26T06:32:49.650Z,13.86
2019-05-26T06:35:15.897Z,13.96
2019-05-26T06:37:41.817Z,14.07
2019-05-26T06:40:08.320Z,14.26
2019-05-26T06:42:34.971Z,14.40
2019-05-26T06:45:01.779Z,13.20
2019-05-26T06:47:28.142Z,14.62
2019-05-26T06:49:54.548Z,14.73
2019-05-26T06:52:21.056Z,13.59
2019-05-26T06:54:47.452Z,15.00
2019-05-26T06:57:15.668Z,15.10
2019-05-26T06:59:41.897Z,15.26
2019-05-26T07:02:07.929Z,15.52
2019-05-26T07:04:34.279Z,15.71
2019-05-26T07:07:00.353Z,15.98
2019-05-26T07:09:26.854Z,16.34
2019-05-26T07:11:59.665Z,16.76
2019-05-26T07:14:21.292Z,17.12
2019-05-26T07:16:47.344Z,17.70
2019-05-26T07:19:13.999Z,18.14
2019-05-26T07:21:40.263Z,18.53
2019-05-26T07:24:06.381Z,18.94
2019-05-26T07:26:32.900Z,19.47
2019-05-26T07:28:59.021Z,19.73
2019-05-26T07:31:24.963Z,20.01
2019-05-26T07:33:51.925Z,20.17
2019-05-26T07:36:18.083Z,20.18
2019-05-26T07:38:44.239Z,20.21
2019-05-26T07:41:10.295Z,20.32
2019-05-26T07:43:36.329Z,20.44
2019-05-26T07:46:03.747Z,20.55
2019-05-26T07:51:43.028Z,20.43
2019-05-26T07:54:24.505Z,20.64
2019-05-26T07:56:37.884Z,20.79
2019-05-26T07:59:08.369Z,20.96
2019-05-26T08:01:36.473Z,21.18
2019-05-26T08:04:03.522Z,21.36
2019-05-26T08:06:30.906Z,21.60
2019-05-26T08:08:57.720Z,22.00
2019-05-26T08:11:23.864Z,21.18
2019-05-26T08:13:50.326Z,22.48
2019-05-26T08:16:16.848Z,22.54
2019-05-26T08:18:43.256Z,22.69
2019-05-26T08:21:09.766Z,21.70
2019-05-26T08:23:36.011Z,22.67
2019-05-26T08:26:03.775Z,22.83
2019-05-26T08:28:30.754Z,23.01
2019-05-26T08:30:57.001Z,21.92
2019-05-26T08:33:24.919Z,22.89
2019-05-26T08:35:51.619Z,22.67
2019-05-26T08:38:20.201Z,22.54
2019-05-26T08:40:46.778Z,22.27
2019-05-26T08:43:13.196Z,22.23
2019-05-26T08:45:39.589Z,22.28
2019-05-26T08:48:06.079Z,22.35
2019-05-26T08:50:34.438Z,22.61
2019-05-26T08:53:01.391Z,22.94
2019-05-26T08:55:27.637Z,23.19
2019-05-26T08:57:54.272Z,23.13
2019-05-26T09:00:22.752Z,23.32
2019-05-26T09:02:49.307Z,23.41
2019-05-26T09:05:15.806Z,23.60
2019-05-26T09:07:42.864Z,24.03
2019-05-26T09:10:09.705Z,24.27
2019-05-26T09:12:37.264Z,24.44
2019-05-26T09:15:07.964Z,24.80
2019-05-26T09:17:34.289Z,24.89
2019-05-26T09:20:00.709Z,24.46
2019-05-26T09:22:27.644Z,24.05
2019-05-26T09:24:58.647Z,23.95
2019-05-26T09:27:25.179Z,23.87
2019-05-26T09:29:51.467Z,23.93
2019-05-26T09:32:35.894Z,24.19
2019-05-26T09:35:07.077Z,24.35
2019-05-26T09:37:34.370Z,24.58
2019-05-26T09:40:02.633Z,24.83
2019-05-26T09:42:29.285Z,25.21
2019-05-26T09:44:55.457Z,25.46
2019-05-26T09:47:30.404Z,25.40
2019-05-26T09:49:57.203Z,25.50
2019-05-26T09:52:25.044Z,25.65
2019-05-26T09:54:51.234Z,25.25
2019-05-26T09:57:19.375Z,25.73
2019-05-26T09:59:46.165Z,25.81
2019-05-26T10:02:12.901Z,26.17
2019-05-26T10:04:41.452Z,26.42
2019-05-26T10:07:12.092Z,26.45
2019-05-26T10:09:37.096Z,25.98
2019-05-26T10:12:03.962Z,25.77
2019-05-26T10:14:31.330Z,25.56
2019-05-26T10:17:01.163Z,25.25
2019-05-26T10:19:27.707Z,24.83
2019-05-26T10:21:54.671Z,24.83
2019-05-26T10:24:20.957Z,25.12
2019-05-26T10:26:47.453Z,25.77
2019-05-26T10:29:13.813Z,25.97
2019-05-26T10:31:40.506Z,25.81
2019-05-26T10:34:06.691Z,25.78
2019-05-26T10:36:32.820Z,25.80
2019-05-26T10:38:59.178Z,25.79
2019-05-26T10:41:25.504Z,25.53
2019-05-26T10:43:53.246Z,25.44
2019-05-26T10:46:21.827Z,25.47
2019-05-26T10:48:48.107Z,24.53
2019-05-26T10:51:14.400Z,25.78
2019-05-26T10:53:41.571Z,25.23
2019-05-26T10:56:10.458Z,26.72
2019-05-26T10:58:37.030Z,27.25
2019-05-26T11:01:03.916Z,27.55
2019-05-26T11:03:30.379Z,27.90
2019-05-26T11:06:00.687Z,28.10
2019-05-26T11:08:28.943Z,28.03
2019-05-26T11:10:55.680Z,27.71
2019-05-26T11:13:21.994Z,27.52
2019-05-26T11:15:48.642Z,27.48
2019-05-26T11:18:18.643Z,27.05
2019-05-26T11:20:44.770Z,26.99
2019-05-26T11:23:11.192Z,27.06
2019-05-26T11:25:37.588Z,27.30
2019-05-26T11:28:04.097Z,27.44
2019-05-26T11:30:30.466Z,27.40
2019-05-26T11:32:59.557Z,27.37
2019-05-26T11:35:25.893Z,25.34
2019-05-26T11:37:54.584Z,27.17
2019-05-26T11:40:21.590Z,27.29
2019-05-26T11:42:48.124Z,27.15
2019-05-26T11:45:17.622Z,26.97
2019-05-26T11:47:43.837Z,26.83
2019-05-26T11:50:10.687Z,26.17
2019-05-26T11:52:38.858Z,26.27
2019-05-26T11:55:10.574Z,26.41
2019-05-26T11:57:37.557Z,26.48
2019-05-26T12:00:08.737Z,26.43
2019-05-26T12:02:35.835Z,25.20
2019-05-26T12:05:04.869Z,26.36
2019-05-26T12:07:31.865Z,26.46
2019-05-26T12:09:58.610Z,26.53
2019-05-26T12:12:25.567Z,26.57
2019-05-26T12:14:52.092Z,26.43
2019-05-26T12:17:18.454Z,26.73
2019-05-26T12:19:48.167Z,26.90
2019-05-26T12:22:14.526Z,25.90
2019-05-26T12:24:42.183Z,27.15
2019-05-26T12:27:12.055Z,27.27
2019-05-26T12:29:43.273Z,27.61
2019-05-26T12:32:09.569Z,27.95
2019-05-26T12:34:36.405Z,28.10
2019-05-26T12:37:06.965Z,27.89
2019-05-26T12:39:33.499Z,27.50
2019-05-26T12:42:04.878Z,27.51
2019-05-26T12:44:31.821Z,27.88
2019-05-26T12:46:58.019Z,28.24
2019-05-26T12:49:27.770Z,28.16
2019-05-26T12:51:52.949Z,28.39
2019-05-26T12:54:21.001Z,28.50
2019-05-26T12:56:47.379Z,28.39
2019-05-26T12:59:13.468Z,28.04
2019-05-26T13:01:42.433Z,27.94
2019-05-26T13:04:09.199Z,27.95
2019-05-26T13:06:39.298Z,28.09
2019-05-26T13:09:08.461Z,28.17
2019-05-26T13:11:35.353Z,28.05
2019-05-26T13:14:01.554Z,27.64
2019-05-26T13:16:28.575Z,27.49
2019-05-26T13:18:56.792Z,27.30
2019-05-26T13:21:26.701Z,27.07
2019-05-26T13:23:58.386Z,27.10
2019-05-26T13:26:24.190Z,26.17
2019-05-26T13:28:50.492Z,27.15
2019-05-26T13:31:16.629Z,26.81
2019-05-26T13:33:42.958Z,26.51
2019-05-26T13:36:11.101Z,26.36
2019-05-26T13:38:40.307Z,26.34
2019-05-26T13:41:07.371Z,26.33
2019-05-26T13:43:34.014Z,26.24
2019-05-26T13:46:00.073Z,26.36
2019-05-26T13:48:26.408Z,26.35
2019-05-26T13:50:52.741Z,26.38
2019-05-26T13:53:18.926Z,26.39
2019-05-26T13:55:47.876Z,26.48
2019-05-26T13:58:14.126Z,25.50
2019-05-26T14:00:40.683Z,26.59
2019-05-26T14:03:07.364Z,25.25
2019-05-26T14:05:34.527Z,26.13
2019-05-26T14:08:02.191Z,26.30
2019-05-26T14:10:36.023Z,26.47
2019-05-26T14:13:04.626Z,26.29
2019-05-26T14:15:38.276Z,24.91
2019-05-26T14:18:01.116Z,25.65
2019-05-26T14:20:38.997Z,25.59
2019-05-26T14:23:05.604Z,25.77
2019-05-26T14:25:32.588Z,25.89
2019-05-26T14:27:58.907Z,25.90
2019-05-26T14:30:25.110Z,25.96
2019-05-26T14:32:51.561Z,26.05
2019-05-26T14:35:17.707Z,25.99
2019-05-26T14:37:44.352Z,26.00
2019-05-26T14:40:13.485Z,25.50
2019-05-26T14:42:39.725Z,25.19
2019-05-26T14:45:07.128Z,25.03
2019-05-26T14:47:33.638Z,24.96
2019-05-26T14:49:59.804Z,25.01
2019-05-26T14:52:26.203Z,25.08
2019-05-26T14:54:52.679Z,25.05
2019-05-26T14:57:31.584Z,25.32
2019-05-26T14:59:57.498Z,25.67
2019-05-26T15:02:26.375Z,25.91
2019-05-26T15:04:52.754Z,25.75
2019-05-26T15:07:19.540Z,25.33
2019-05-26T15:09:46.270Z,25.19
2019-05-26T15:12:12.535Z,25.49
2019-05-26T15:14:39.617Z,25.90
2019-05-26T15:17:05.964Z,26.20
2019-05-26T15:19:32.976Z,26.37
2019-05-26T15:21:59.830Z,26.32
2019-05-26T15:24:26.290Z,26.22
2019-05-26T15:26:54.803Z,26.06
2019-05-26T15:29:22.692Z,26.22
2019-05-26T15:31:49.436Z,26.32
2019-05-26T15:34:16.839Z,26.18
2019-05-26T15:36:43.158Z,25.84
2019-05-26T15:39:09.805Z,25.65
2019-05-26T15:41:35.953Z,25.67
2019-05-26T15:44:02.369Z,25.70
2019-05-26T15:46:28.841Z,25.38
2019-05-26T15:48:55.024Z,25.13
2019-05-26T15:51:21.037Z,25.07
2019-05-26T15:53:47.463Z,25.14
2019-05-26T15:56:13.539Z,25.35
2019-05-26T15:58:39.708Z,25.48
2019-05-26T16:01:06.072Z,25.69
2019-05-26T16:03:32.216Z,25.83
2019-05-26T16:05:58.365Z,25.83
2019-05-26T16:08:24.779Z,25.51
2019-05-26T16:10:50.793Z,25.41
2019-05-26T16:13:16.917Z,25.23
2019-05-26T16:15:43.571Z,25.14
2019-05-26T16:18:10.142Z,24.97
2019-05-26T16:20:37.749Z,23.66
2019-05-26T16:23:04.383Z,24.61
2019-05-26T16:25:30.634Z,24.63
2019-05-26T16:27:57.621Z,24.61
2019-05-26T16:30:24.270Z,24.44
2019-05-26T16:32:51.427Z,24.41
2019-05-26T16:35:18.805Z,24.35
2019-05-26T16:37:44.959Z,24.37
2019-05-26T16:40:11.416Z,24.41
2019-05-26T16:42:37.806Z,24.40
2019-05-26T16:45:05.328Z,24.34
2019-05-26T16:47:31.604Z,24.35
2019-05-26T16:49:57.743Z,24.32
2019-05-26T16:52:24.188Z,24.06
2019-05-26T16:54:50.483Z,24.11
2019-05-26T16:57:16.824Z,24.24
2019-05-26T16:59:43.222Z,24.14
2019-05-26T17:02:09.357Z,24.12
2019-05-26T17:04:35.470Z,24.14
2019-05-26T17:07:02.654Z,24.29
2019-05-26T17:09:29.255Z,24.34
2019-05-26T17:11:55.427Z,24.49
2019-05-26T17:14:21.775Z,24.58
2019-05-26T17:16:48.225Z,24.50
2019-05-26T17:19:15.279Z,24.43
2019-05-26T17:21:42.102Z,24.43
2019-05-26T17:24:08.594Z,24.35
2019-05-26T17:26:35.626Z,24.22
2019-05-26T17:29:02.699Z,24.06
2019-05-26T17:31:28.936Z,24.00
2019-05-26T17:33:54.986Z,23.95
2019-05-26T17:36:21.557Z,23.87
2019-05-26T17:38:47.608Z,23.88
2019-05-26T17:41:13.627Z,23.90
2019-05-26T17:43:39.690Z,23.76
2019-05-26T17:46:06.161Z,23.66
2019-05-26T17:48:32.510Z,23.61
2019-05-26T17:50:59.073Z,23.53
2019-05-26T17:53:25.283Z,23.47
2019-05-26T17:55:51.324Z,23.31
2019-05-26T17:58:17.322Z,23.21
2019-05-26T18:00:43.642Z,23.15
2019-05-26T18:03:09.718Z,23.18
2019-05-26T18:05:36.145Z,23.10
2019-05-26T18:08:02.750Z,23.12
2019-05-26T18:10:29.656Z,23.12
2019-05-26T18:12:55.961Z,23.15
2019-05-26T18:15:22.133Z,23.14
2019-05-26T18:17:48.326Z,23.13
2019-05-26T18:20:15.339Z,23.10
2019-05-26T18:22:41.623Z,22.93
2019-05-26T18:25:08.212Z,22.82
2019-05-26T18:27:34.885Z,22.50
2019-05-26T18:30:03.241Z,22.37
2019-05-26T18:32:29.562Z,22.25
2019-05-26T18:34:56.343Z,22.15
2019-05-26T18:37:23.335Z,22.12
2019-05-26T18:39:50.117Z,22.05
2019-05-26T18:42:17.311Z,21.95
2019-05-26T18:44:43.998Z,21.72
2019-05-26T18:47:10.189Z,21.65
2019-05-26T18:49:36.725Z,21.56
2019-05-26T18:52:04.849Z,21.42
2019-05-26T18:54:31.173Z,21.40
2019-05-26T18:56:57.814Z,21.31
2019-05-26T18:59:24.028Z,21.16
2019-05-26T19:01:50.029Z,21.09
2019-05-26T19:04:16.296Z,20.99
2019-05-26T19:06:43.654Z,19.94
2019-05-26T19:09:09.612Z,20.80
2019-05-26T19:11:36.349Z,20.75
2019-05-26T19:14:03.372Z,20.66
2019-05-26T19:16:29.797Z,20.55
2019-05-26T19:18:56.090Z,20.46
2019-05-26T19:21:22.286Z,20.39
2019-05-26T19:23:48.708Z,20.34
2019-05-26T19:26:15.130Z,20.23
2019-05-26T19:28:41.213Z,20.15
2019-05-26T19:31:07.252Z,20.00
2019-05-26T19:33:33.408Z,19.96
2019-05-26T19:35:59.609Z,19.86
2019-05-26T19:38:25.768Z,19.77
2019-05-26T19:40:51.801Z,19.70
2019-05-26T19:43:18.313Z,19.65
2019-05-26T19:45:44.757Z,19.59
2019-05-26T19:48:10.743Z,19.52
2019-05-26T19:50:36.778Z,19.47
2019-05-26T19:53:04.316Z,19.39
2019-05-26T19:55:30.485Z,19.31
2019-05-26T19:57:56.500Z,19.24
2019-05-26T20:00:23.176Z,19.19
2019-05-26T20:02:49.318Z,19.13
2019-05-26T20:05:16.397Z,19.07
2019-05-26T20:07:43.111Z,18.99
2019-05-26T20:10:10.663Z,18.93
2019-05-26T20:12:36.773Z,18.86
2019-05-26T20:15:04.966Z,18.79
2019-05-26T20:17:31.388Z,18.70
2019-05-26T20:19:57.446Z,18.63
2019-05-26T20:22:24.647Z,18.59
2019-05-26T20:24:51.047Z,18.54
2019-05-26T20:27:17.067Z,18.51
2019-05-26T20:29:43.222Z,18.48
2019-05-26T20:32:09.486Z,18.38
2019-05-26T20:34:35.567Z,18.29
2019-05-26T20:37:02.507Z,18.25
2019-05-26T20:39:28.842Z,18.22
2019-05-26T20:41:55.021Z,18.17
2019-05-26T20:44:21.058Z,18.15
2019-05-26T20:46:47.110Z,18.12
2019-05-26T20:49:13.259Z,18.09
2019-05-26T20:51:39.941Z,18.03
2019-05-26T20:54:05.995Z,17.98
2019-05-26T20:56:32.777Z,17.95
2019-05-26T20:59:00.020Z,17.88
2019-05-26T21:01:26.604Z,17.85
2019-05-26T21:03:52.769Z,17.82
2019-05-26T21:06:19.814Z,17.78
2019-05-26T21:08:46.745Z,17.76
2019-05-26T21:11:13.997Z,17.73
2019-05-26T21:13:41.220Z,17.68
2019-05-26T21:16:07.380Z,17.65
2019-05-26T21:18:33.610Z,17.61
2019-05-26T21:21:00.866Z,17.54
2019-05-26T21:23:27.317Z,17.49
2019-05-26T21:25:53.415Z,17.47
2019-05-26T21:28:19.974Z,17.41
2019-05-26T21:30:46.141Z,17.36
2019-05-26T21:33:12.272Z,17.32
2019-05-26T21:35:38.595Z,17.30
2019-05-26T21:38:04.689Z,17.29
2019-05-26T21:40:30.730Z,17.25
2019-05-26T21:42:57.588Z,17.23
2019-05-26T21:45:23.834Z,17.18
2019-05-26T21:47:49.982Z,17.15
2019-05-26T21:50:17.165Z,17.08
2019-05-26T21:52:45.977Z,17.06
2019-05-26T21:55:13.324Z,17.04
2019-05-26T21:57:39.570Z,16.99
2019-05-26T22:00:12.145Z,16.97
2019-05-26T22:02:43.070Z,16.93
2019-05-26T22:05:10.048Z,16.89
2019-05-26T22:07:38.564Z,16.85
2019-05-26T22:10:07.788Z,16.82
2019-05-26T22:12:34.922Z,16.80
2019-05-26T22:15:01.071Z,16.77
2019-05-26T22:17:27.388Z,16.72
2019-05-26T22:19:53.628Z,16.68
2019-05-26T22:22:20.116Z,16.64
2019-05-26T22:24:47.064Z,16.61
2019-05-26T22:27:13.972Z,16.59
2019-05-26T22:29:40.113Z,16.55
2019-05-26T22:32:06.277Z,16.54
2019-05-26T22:34:32.308Z,16.51
2019-05-26T22:36:58.757Z,16.48
2019-05-26T22:39:24.931Z,16.46
2019-05-26T22:41:51.056Z,16.44
2019-05-26T22:44:17.592Z,16.43
2019-05-26T22:46:44.023Z,16.42
2019-05-26T22:49:10.158Z,16.38
2019-05-26T22:51:36.889Z,16.36
2019-05-26T22:54:03.512Z,16.34
2019-05-26T22:56:29.670Z,16.33
2019-05-26T22:58:55.699Z,16.32
2019-05-26T23:01:21.733Z,16.34
2019-05-26T23:03:48.278Z,16.35
2019-05-26T23:06:14.414Z,16.36
2019-05-26T23:08:40.543Z,16.39
2019-05-26T23:11:06.876Z,16.41
2019-05-26T23:13:32.893Z,16.43
2019-05-26T23:15:58.942Z,16.45
2019-05-26T23:18:25.391Z,16.47
2019-05-26T23:20:51.550Z,16.50
2019-05-26T23:23:17.572Z,16.51
2019-05-26T23:25:43.556Z,16.53
2019-05-26T23:28:09.692Z,16.56
2019-05-26T23:30:35.906Z,16.58
2019-05-26T23:33:02.575Z,16.62
2019-05-26T23:35:28.735Z,16.62
2019-05-26T23:37:54.673Z,16.65
2019-05-26T23:40:20.892Z,16.66
2019-05-26T23:42:47.064Z,16.67
2019-05-26T23:45:13.318Z,16.71
2019-05-26T23:47:39.329Z,16.72
2019-05-26T23:50:06.192Z,16.70
2019-05-26T23:52:32.603Z,16.43
2019-05-26T23:54:58.865Z,16.70
2019-05-26T23:57:25.271Z,16.70
2019-05-26T23:59:51.352Z,16.68
